createdAt,value
2018-07-06T00:00:03.300Z,23.00
2018-07-06T00:02:42.968Z,23.00
2018-07-06T00:05:22.686Z,23.00
2018-07-06T00:08:02.322Z,22.90
2018-07-06T00:10:41.790Z,22.90
2018-07-06T00:15:54.906Z,23.00
2018-07-06T00:18:34.536Z,23.00
2018-07-06T00:21:14.208Z,23.00
2018-07-06T00:23:53.848Z,23.00
2018-07-06T00:26:33.468Z,23.00
2018-07-06T00:29:13.237Z,23.00
2018-07-06T00:31:52.850Z,23.00
2018-07-06T00:34:32.524Z,23.00
2018-07-06T00:37:12.067Z,22.90
2018-07-06T00:42:25.336Z,22.90
2018-07-06T00:45:04.880Z,22.90
2018-07-06T00:47:44.444Z,22.90
2018-07-06T00:50:24.037Z,23.00
2018-07-06T00:55:37.286Z,22.90
2018-07-06T00:58:16.916Z,22.90
2018-07-06T01:00:56.394Z,23.00
2018-07-06T01:03:36.072Z,22.90
2018-07-06T01:06:15.596Z,22.90
2018-07-06T01:08:55.172Z,22.90
2018-07-06T01:14:08.579Z,22.80
2018-07-06T01:16:48.176Z,22.90
2018-07-06T01:19:27.828Z,22.90
2018-07-06T01:22:07.462Z,22.90
2018-07-06T01:24:47.189Z,22.90
2018-07-06T01:27:26.724Z,22.90
2018-07-06T01:30:06.386Z,22.90
2018-07-06T01:32:46.131Z,22.90
2018-07-06T01:35:25.677Z,22.80
2018-07-06T01:38:05.378Z,22.80
2018-07-06T01:40:45.005Z,22.80
2018-07-06T01:43:24.612Z,22.80
2018-07-06T01:46:04.155Z,22.80
2018-07-06T01:48:43.898Z,22.90
2018-07-06T01:51:23.650Z,22.90
2018-07-06T01:54:03.391Z,22.90
2018-07-06T01:56:42.975Z,22.90
2018-07-06T01:59:22.601Z,22.90
2018-07-06T02:02:02.253Z,22.90
2018-07-06T02:04:41.889Z,22.90
2018-07-06T02:07:21.673Z,22.90
2018-07-06T02:10:01.453Z,22.90
2018-07-06T02:12:41.011Z,22.80
2018-07-06T02:15:20.668Z,22.80
2018-07-06T02:18:00.298Z,22.90
2018-07-06T02:20:39.845Z,22.90
2018-07-06T02:23:19.574Z,23.00
2018-07-06T02:25:59.120Z,22.90
2018-07-06T02:28:38.638Z,22.90
2018-07-06T02:31:18.169Z,22.90
2018-07-06T02:33:57.744Z,22.90
2018-07-06T02:36:37.446Z,22.90
2018-07-06T02:39:17.089Z,22.80
2018-07-06T02:41:56.735Z,22.80
2018-07-06T02:44:36.519Z,22.80
2018-07-06T02:47:16.128Z,22.80
2018-07-06T02:49:55.522Z,22.80
2018-07-06T02:52:35.201Z,22.80
2018-07-06T02:57:48.498Z,22.80
2018-07-06T03:00:28.276Z,22.80
2018-07-06T03:03:07.782Z,22.80
2018-07-06T03:05:47.555Z,22.90
2018-07-06T03:08:27.169Z,23.00
2018-07-06T03:13:40.199Z,22.90
2018-07-06T03:16:19.800Z,22.90
2018-07-06T03:18:59.431Z,22.90
2018-07-06T03:21:39.167Z,22.80
2018-07-06T03:24:18.879Z,22.80
2018-07-06T03:26:58.541Z,22.80
2018-07-06T03:29:38.369Z,22.80
2018-07-06T03:32:18.057Z,22.80
2018-07-06T03:34:57.771Z,22.80
2018-07-06T03:37:37.671Z,22.70
2018-07-06T03:40:17.099Z,22.70
2018-07-06T03:42:56.787Z,22.70
2018-07-06T03:45:36.388Z,22.70
2018-07-06T03:48:15.993Z,22.70
2018-07-06T03:50:55.550Z,22.70
2018-07-06T03:53:35.299Z,22.70
2018-07-06T03:56:14.825Z,22.70
2018-07-06T03:58:54.529Z,22.70
2018-07-06T04:01:34.133Z,22.70
2018-07-06T04:04:13.793Z,22.80
2018-07-06T04:06:53.421Z,22.90
2018-07-06T04:09:33.003Z,23.00
2018-07-06T04:12:12.708Z,23.20
2018-07-06T04:14:52.394Z,23.30
2018-07-06T04:17:31.907Z,23.40
2018-07-06T04:20:11.627Z,23.50
2018-07-06T04:22:51.379Z,23.50
2018-07-06T04:25:30.939Z,23.60
2018-07-06T04:28:10.607Z,23.60
2018-07-06T04:30:50.209Z,23.60
2018-07-06T04:33:29.763Z,23.50
2018-07-06T04:36:09.455Z,23.40
2018-07-06T04:38:49.183Z,23.30
2018-07-06T04:41:28.757Z,23.30
2018-07-06T04:44:08.291Z,23.20
2018-07-06T04:46:47.947Z,23.20
2018-07-06T04:49:27.499Z,23.10
2018-07-06T04:52:07.019Z,23.10
2018-07-06T04:54:46.771Z,23.10
2018-07-06T04:57:26.309Z,23.10
2018-07-06T05:00:05.965Z,23.20
2018-07-06T05:05:19.355Z,23.20
2018-07-06T05:07:59.001Z,23.20
2018-07-06T05:10:38.563Z,23.20
2018-07-06T05:13:18.236Z,23.10
2018-07-06T05:15:57.825Z,23.10
2018-07-06T05:18:37.391Z,23.10
2018-07-06T05:21:17.079Z,23.00
2018-07-06T05:23:56.970Z,23.00
2018-07-06T05:26:36.568Z,23.00
2018-07-06T05:29:16.281Z,22.90
2018-07-06T05:31:56.012Z,22.90
2018-07-06T05:34:35.623Z,23.00
2018-07-06T05:37:15.296Z,23.00
2018-07-06T05:39:55.019Z,23.00
2018-07-06T05:42:34.576Z,23.00
2018-07-06T05:45:14.164Z,23.00
2018-07-06T05:47:53.636Z,23.00
2018-07-06T05:50:33.184Z,23.00
2018-07-06T05:53:12.856Z,23.00
2018-07-06T05:55:52.500Z,22.90
2018-07-06T05:58:32.240Z,22.90
2018-07-06T06:01:11.750Z,22.90
2018-07-06T06:03:51.304Z,22.90
2018-07-06T06:06:31.024Z,22.90
2018-07-06T06:08:58.272Z,22.90
2018-07-06T06:11:26.536Z,22.80
2018-07-06T06:13:54.806Z,22.80
2018-07-06T06:16:23.064Z,22.80
2018-07-06T06:21:19.367Z,22.90
2018-07-06T06:23:47.638Z,23.00
2018-07-06T06:26:16.282Z,23.10
2018-07-06T06:28:44.540Z,23.10
2018-07-06T06:31:12.836Z,23.10
2018-07-06T06:33:41.162Z,23.00
2018-07-06T06:36:09.470Z,23.00
2018-07-06T06:38:37.769Z,23.00
2018-07-06T06:41:06.034Z,23.00
2018-07-06T06:43:34.365Z,22.90
2018-07-06T06:46:02.663Z,22.90
2018-07-06T06:50:58.945Z,22.90
2018-07-06T06:53:27.267Z,22.80
2018-07-06T06:55:55.579Z,22.80
2018-07-06T06:58:23.904Z,22.80
2018-07-06T07:03:20.628Z,22.80
2018-07-06T07:08:17.089Z,22.70
2018-07-06T07:10:45.676Z,22.80
2018-07-06T07:13:14.255Z,22.80
2018-07-06T07:15:48.932Z,22.90
2018-07-06T07:18:17.260Z,23.00
2018-07-06T07:20:45.584Z,23.00
2018-07-06T07:23:13.872Z,23.00
2018-07-06T07:25:42.143Z,23.00
2018-07-06T07:28:10.414Z,23.00
2018-07-06T07:30:38.672Z,22.90
2018-07-06T07:33:06.981Z,22.90
2018-07-06T07:38:03.259Z,22.90
2018-07-06T07:40:31.551Z,22.90
2018-07-06T07:42:59.970Z,22.80
2018-07-06T07:45:28.255Z,22.80
2018-07-06T07:47:56.748Z,22.80
2018-07-06T07:50:25.037Z,22.80
2018-07-06T07:53:04.599Z,22.80
2018-07-06T07:58:00.941Z,22.90
2018-07-06T08:00:29.301Z,22.90
2018-07-06T08:02:57.562Z,22.90
2018-07-06T08:05:25.860Z,22.90
2018-07-06T08:07:54.141Z,23.00
2018-07-06T08:12:50.440Z,22.90
2018-07-06T08:15:18.751Z,22.90
2018-07-06T08:17:47.054Z,22.90
2018-07-06T08:20:15.341Z,22.90
2018-07-06T08:22:43.673Z,22.80
2018-07-06T08:25:11.981Z,22.80
2018-07-06T08:27:40.261Z,22.80
2018-07-06T08:30:08.543Z,22.80
2018-07-06T08:32:36.803Z,22.80
2018-07-06T08:37:51.759Z,22.80
2018-07-06T08:40:20.963Z,22.90
2018-07-06T08:42:50.361Z,22.90
2018-07-06T08:45:18.727Z,22.90
2018-07-06T08:47:47.465Z,22.90
2018-07-06T08:50:15.771Z,22.90
2018-07-06T08:52:45.114Z,22.90
2018-07-06T08:55:13.530Z,22.90
2018-07-06T08:57:42.965Z,22.80
2018-07-06T09:00:11.802Z,22.80
2018-07-06T09:02:40.097Z,22.80
2018-07-06T09:05:08.989Z,22.80
2018-07-06T09:07:37.331Z,22.80
2018-07-06T09:10:05.594Z,22.90
2018-07-06T09:12:33.863Z,22.90
2018-07-06T09:15:02.749Z,22.90
2018-07-06T09:17:31.107Z,22.90
2018-07-06T09:22:28.213Z,22.90
2018-07-06T09:24:57.823Z,22.90
2018-07-06T09:27:26.103Z,22.90
2018-07-06T09:29:54.433Z,22.80
2018-07-06T09:32:22.727Z,22.80
2018-07-06T09:34:51.035Z,22.80
2018-07-06T09:37:19.393Z,22.80
2018-07-06T09:39:48.535Z,22.80
2018-07-06T09:42:17.340Z,22.80
2018-07-06T09:44:45.634Z,22.70
2018-07-06T09:47:13.961Z,22.70
2018-07-06T09:49:42.268Z,22.70
2018-07-06T09:52:10.582Z,22.80
2018-07-06T09:54:38.899Z,22.80
2018-07-06T09:57:07.197Z,22.80
2018-07-06T09:59:35.483Z,22.80
2018-07-06T10:02:03.868Z,22.90
2018-07-06T10:04:32.232Z,22.90
2018-07-06T10:07:00.512Z,22.90
2018-07-06T10:09:28.802Z,22.80
2018-07-06T10:11:57.094Z,22.80
2018-07-06T10:14:25.351Z,22.80
2018-07-06T10:16:53.656Z,22.80
2018-07-06T10:19:21.977Z,22.80
2018-07-06T10:21:50.228Z,22.80
2018-07-06T10:24:18.542Z,22.80
2018-07-06T10:26:46.848Z,22.80
2018-07-06T10:30:21.772Z,22.80
2018-07-06T10:32:50.079Z,22.70
2018-07-06T10:35:18.422Z,22.80
2018-07-06T10:37:46.724Z,22.90
2018-07-06T10:40:15.040Z,22.90
2018-07-06T10:42:43.315Z,22.90
2018-07-06T10:47:39.636Z,22.90
2018-07-06T10:50:07.922Z,22.90
2018-07-06T10:52:36.189Z,22.90
2018-07-06T10:55:04.486Z,22.90
2018-07-06T10:57:32.774Z,22.80
2018-07-06T11:00:01.061Z,22.80
2018-07-06T11:02:29.304Z,22.80
2018-07-06T11:04:57.666Z,22.80
2018-07-06T11:07:25.912Z,22.80
2018-07-06T11:09:54.194Z,22.80
2018-07-06T11:12:22.464Z,22.80
2018-07-06T11:14:50.758Z,22.80
2018-07-06T11:17:19.092Z,22.80
2018-07-06T11:19:47.385Z,22.80
2018-07-06T11:22:15.660Z,22.90
2018-07-06T11:24:43.976Z,22.90
2018-07-06T11:27:12.287Z,23.00
2018-07-06T11:29:40.598Z,23.00
2018-07-06T11:32:08.891Z,23.00
2018-07-06T11:34:37.136Z,23.00
2018-07-06T11:37:05.543Z,22.90
2018-07-06T11:39:33.837Z,22.90
2018-07-06T11:42:02.139Z,22.90
2018-07-06T11:46:58.410Z,22.90
2018-07-06T11:51:54.812Z,22.80
2018-07-06T11:54:23.124Z,22.80
2018-07-06T11:56:51.743Z,22.80
2018-07-06T11:59:20.009Z,22.90
2018-07-06T12:01:48.277Z,22.90
2018-07-06T12:04:16.761Z,22.90
2018-07-06T12:06:44.948Z,22.90
2018-07-06T12:09:13.286Z,22.90
2018-07-06T12:11:41.576Z,22.90
2018-07-06T12:14:09.942Z,22.90
2018-07-06T12:16:38.208Z,22.90
2018-07-06T12:19:06.488Z,22.90
2018-07-06T12:21:34.799Z,22.90
2018-07-06T12:24:03.422Z,22.80
2018-07-06T12:26:31.786Z,22.80
2018-07-06T12:29:00.083Z,22.90
2018-07-06T12:31:28.458Z,22.90
2018-07-06T12:38:52.783Z,22.90
2018-07-06T12:41:21.208Z,22.90
2018-07-06T12:43:49.424Z,22.90
2018-07-06T12:46:17.716Z,22.90
2018-07-06T12:48:46.007Z,22.80
2018-07-06T12:51:14.259Z,22.80
2018-07-06T12:53:42.518Z,22.80
2018-07-06T12:56:10.811Z,22.80
2018-07-06T12:58:39.204Z,22.80
2018-07-06T13:01:07.391Z,22.80
2018-07-06T13:03:35.706Z,22.80
2018-07-06T13:06:04.089Z,22.80
2018-07-06T13:08:32.391Z,22.80
2018-07-06T13:11:00.693Z,22.80
2018-07-06T13:13:28.981Z,22.80
2018-07-06T13:15:57.240Z,22.90
2018-07-06T13:18:25.591Z,22.90
2018-07-06T13:20:53.888Z,22.90
2018-07-06T13:23:22.168Z,22.90
2018-07-06T13:25:50.458Z,22.90
2018-07-06T13:28:18.742Z,22.90
2018-07-06T13:30:46.992Z,22.90
2018-07-06T13:33:15.291Z,22.90
2018-07-06T13:35:43.567Z,22.90
2018-07-06T13:38:11.853Z,22.80
2018-07-06T13:40:40.111Z,22.80
2018-07-06T13:43:08.381Z,22.80
2018-07-06T13:45:36.729Z,22.80
2018-07-06T13:48:05.049Z,22.80
2018-07-06T13:53:01.364Z,22.80
2018-07-06T14:00:25.769Z,22.80
2018-07-06T14:02:54.153Z,22.90
2018-07-06T14:05:22.419Z,22.90
2018-07-06T14:07:50.706Z,22.90
2018-07-06T14:10:18.985Z,22.90
2018-07-06T14:12:47.300Z,22.90
2018-07-06T14:15:15.584Z,22.90
2018-07-06T14:17:43.862Z,22.90
2018-07-06T14:20:12.263Z,22.90
2018-07-06T14:22:40.679Z,22.90
2018-07-06T14:25:09.170Z,22.80
2018-07-06T14:27:37.799Z,22.80
2018-07-06T14:30:06.078Z,22.80
2018-07-06T14:32:34.365Z,22.80
2018-07-06T14:35:02.655Z,22.80
2018-07-06T14:37:30.926Z,22.80
2018-07-06T14:39:59.196Z,22.80
2018-07-06T14:42:27.461Z,22.80
2018-07-06T14:44:55.725Z,22.80
2018-07-06T14:47:23.987Z,22.90
2018-07-06T14:49:52.247Z,22.90
2018-07-06T14:52:20.545Z,23.00
2018-07-06T14:54:48.855Z,23.00
2018-07-06T14:57:17.149Z,23.00
2018-07-06T14:59:45.442Z,23.00
2018-07-06T15:02:13.712Z,22.90
2018-07-06T15:04:42.005Z,22.90
2018-07-06T15:09:38.445Z,22.90
2018-07-06T15:12:06.752Z,22.90
2018-07-06T15:14:35.105Z,22.90
2018-07-06T15:17:03.436Z,22.90
2018-07-06T15:19:31.699Z,22.90
2018-07-06T15:22:00.014Z,22.80
2018-07-06T15:24:28.297Z,22.90
2018-07-06T15:26:56.599Z,22.90
2018-07-06T15:29:24.889Z,22.90
2018-07-06T15:31:53.171Z,23.00
2018-07-06T15:34:21.480Z,23.00
2018-07-06T15:36:49.773Z,23.00
2018-07-06T15:44:14.247Z,22.90
2018-07-06T15:46:42.528Z,22.90
2018-07-06T15:49:10.857Z,22.90
2018-07-06T15:51:39.213Z,22.90
2018-07-06T15:56:35.544Z,22.90
2018-07-06T15:59:03.873Z,22.90
2018-07-06T16:01:32.158Z,22.90
2018-07-06T16:04:00.465Z,22.90
2018-07-06T16:06:28.832Z,23.00
2018-07-06T16:08:57.130Z,23.00
2018-07-06T16:11:25.410Z,23.00
2018-07-06T16:13:53.701Z,23.00
2018-07-06T16:18:50.066Z,23.00
2018-07-06T16:23:46.360Z,23.00
2018-07-06T16:26:14.670Z,23.00
2018-07-06T16:28:43.860Z,23.00
2018-07-06T16:31:12.142Z,23.00
2018-07-06T16:33:40.420Z,23.00
2018-07-06T16:36:08.688Z,23.00
2018-07-06T16:38:36.955Z,23.00
2018-07-06T16:41:05.248Z,23.00
2018-07-06T16:43:33.531Z,23.00
2018-07-06T16:46:01.874Z,23.00
2018-07-06T16:48:30.159Z,23.00
2018-07-06T16:50:58.835Z,23.10
2018-07-06T16:53:27.137Z,23.10
2018-07-06T16:55:55.479Z,23.20
2018-07-06T17:00:51.753Z,23.10
2018-07-06T17:03:20.084Z,23.10
2018-07-06T17:05:48.340Z,23.10
2018-07-06T17:08:16.611Z,23.00
2018-07-06T17:10:44.888Z,23.00
2018-07-06T17:13:13.171Z,23.00
2018-07-06T17:15:41.444Z,23.00
2018-07-06T17:18:09.906Z,23.00
2018-07-06T17:20:38.198Z,23.00
2018-07-06T17:23:06.541Z,23.00
2018-07-06T17:25:34.812Z,23.00
2018-07-06T17:30:31.114Z,23.00
2018-07-06T17:32:59.406Z,22.90
2018-07-06T17:35:27.698Z,22.90
2018-07-06T17:37:55.959Z,22.90
2018-07-06T17:42:52.273Z,23.00
2018-07-06T17:45:20.560Z,23.00
2018-07-06T17:50:16.843Z,23.20
2018-07-06T17:52:45.124Z,23.20
2018-07-06T17:55:13.416Z,23.10
2018-07-06T17:57:41.700Z,23.10
2018-07-06T18:00:09.967Z,23.10
2018-07-06T18:02:38.238Z,23.10
2018-07-06T18:05:06.528Z,23.10
2018-07-06T18:07:34.912Z,23.00
2018-07-06T18:10:03.218Z,23.00
2018-07-06T18:12:31.506Z,23.00
2018-07-06T18:15:00.065Z,23.00
2018-07-06T18:17:28.378Z,23.00
2018-07-06T18:19:56.648Z,23.00
2018-07-06T18:22:24.949Z,23.00
2018-07-06T18:24:53.224Z,23.10
2018-07-06T18:27:21.495Z,23.20
2018-07-06T18:29:49.775Z,23.20
2018-07-06T18:32:18.034Z,23.20
2018-07-06T18:34:46.344Z,23.20
2018-07-06T18:37:14.650Z,23.20
2018-07-06T18:39:43.118Z,23.10
2018-07-06T18:42:11.491Z,23.10
2018-07-06T18:44:39.759Z,23.10
2018-07-06T18:47:08.210Z,23.10
2018-07-06T18:49:36.510Z,23.10
2018-07-06T18:52:04.928Z,23.00
2018-07-06T18:54:33.241Z,23.00
2018-07-06T18:57:01.475Z,23.00
2018-07-06T18:59:29.795Z,23.00
2018-07-06T19:01:58.169Z,23.00
2018-07-06T19:06:54.480Z,23.00
2018-07-06T19:09:22.772Z,23.00
2018-07-06T19:11:51.054Z,23.00
2018-07-06T19:14:19.347Z,23.00
2018-07-06T19:16:47.614Z,23.00
2018-07-06T19:21:43.946Z,23.20
2018-07-06T19:24:12.501Z,23.20
2018-07-06T19:26:41.432Z,23.20
2018-07-06T19:29:09.748Z,23.20
2018-07-06T19:31:38.022Z,23.20
2018-07-06T19:34:06.321Z,23.20
2018-07-06T19:36:34.719Z,23.20
2018-07-06T19:39:03.110Z,23.10
2018-07-06T19:41:31.412Z,23.10
2018-07-06T19:43:59.684Z,23.10
2018-07-06T19:46:27.972Z,23.10
2018-07-06T19:48:56.282Z,23.10
2018-07-06T19:51:24.584Z,23.10
2018-07-06T19:53:52.860Z,23.10
2018-07-06T19:56:21.135Z,23.10
2018-07-06T19:58:49.499Z,23.10
2018-07-06T20:01:17.820Z,23.20
2018-07-06T20:06:14.129Z,23.10
2018-07-06T20:08:42.393Z,23.20
2018-07-06T20:11:10.657Z,23.20
2018-07-06T20:13:38.949Z,23.20
2018-07-06T20:16:07.246Z,23.10
2018-07-06T20:18:35.511Z,23.10
2018-07-06T20:21:03.806Z,23.10
2018-07-06T20:23:32.085Z,23.10
2018-07-06T20:26:00.381Z,23.10
2018-07-06T20:28:28.665Z,23.10
2018-07-06T20:30:56.951Z,23.10
2018-07-06T20:33:25.252Z,23.00
2018-07-06T20:35:53.525Z,23.10
2018-07-06T20:40:49.829Z,23.10
2018-07-06T20:43:18.090Z,23.10
2018-07-06T20:45:46.361Z,23.20
2018-07-06T20:48:14.772Z,23.20
2018-07-06T20:53:11.055Z,23.20
2018-07-06T20:55:39.337Z,23.20
2018-07-06T20:58:07.593Z,23.20
2018-07-06T21:00:35.857Z,23.20
2018-07-06T21:03:04.171Z,23.10
2018-07-06T21:05:32.466Z,23.10
2018-07-06T21:08:00.779Z,23.10
2018-07-06T21:10:29.045Z,23.10
2018-07-06T21:12:57.293Z,23.10
2018-07-06T21:17:53.545Z,23.10
2018-07-06T21:22:49.902Z,23.10
2018-07-06T21:25:18.205Z,23.10
2018-07-06T21:27:46.539Z,23.00
2018-07-06T21:30:14.797Z,23.00
2018-07-06T21:32:43.043Z,23.00
2018-07-06T21:35:11.295Z,23.00
2018-07-06T21:37:39.560Z,23.10
2018-07-06T21:40:08.064Z,23.10
2018-07-06T21:42:36.346Z,23.20
2018-07-06T21:45:04.675Z,23.20
2018-07-06T21:47:32.942Z,23.20
2018-07-06T21:50:01.229Z,23.20
2018-07-06T21:52:29.509Z,23.10
2018-07-06T21:57:25.808Z,23.10
2018-07-06T21:59:54.077Z,23.10
2018-07-06T22:02:22.367Z,23.10
2018-07-06T22:04:50.607Z,23.10
2018-07-06T22:07:18.937Z,23.00
2018-07-06T22:12:15.224Z,23.00
2018-07-06T22:14:43.570Z,23.00
2018-07-06T22:17:12.829Z,23.10
2018-07-06T22:19:41.136Z,23.10
2018-07-06T22:22:09.377Z,23.10
2018-07-06T22:24:37.765Z,23.10
2018-07-06T22:27:06.035Z,23.10
2018-07-06T22:29:34.317Z,23.10
2018-07-06T22:32:02.605Z,23.10
2018-07-06T22:34:30.863Z,23.10
2018-07-06T22:36:59.221Z,23.10
2018-07-06T22:39:27.571Z,23.00
2018-07-06T22:41:55.840Z,23.00
2018-07-06T22:44:24.119Z,23.10
2018-07-06T22:46:52.436Z,23.00
2018-07-06T22:49:20.714Z,23.00
2018-07-06T22:51:49.067Z,23.00
2018-07-06T22:54:17.353Z,23.00
2018-07-06T22:56:45.662Z,23.00
2018-07-06T23:01:41.982Z,23.00
2018-07-06T23:04:10.329Z,23.10
2018-07-06T23:06:38.594Z,23.20
2018-07-06T23:09:07.092Z,23.20
2018-07-06T23:11:35.347Z,23.20
2018-07-06T23:16:31.616Z,23.20
2018-07-06T23:18:59.888Z,23.10
2018-07-06T23:23:56.171Z,23.10
2018-07-06T23:26:24.463Z,23.10
2018-07-06T23:28:52.855Z,23.10
2018-07-06T23:31:21.135Z,23.10
2018-07-06T23:33:49.408Z,23.00
2018-07-06T23:36:17.675Z,23.00
2018-07-06T23:38:46.006Z,23.00
2018-07-06T23:41:14.262Z,23.10
2018-07-06T23:43:42.531Z,23.10
2018-07-06T23:46:10.911Z,23.10
2018-07-06T23:48:39.191Z,23.10
2018-07-06T23:51:07.505Z,23.10
2018-07-06T23:56:03.782Z,23.10
2018-07-06T23:58:32.057Z,23.10
